createdAt,value
2022-10-16T00:01:04.177Z,2.98
2022-10-16T00:04:12.268Z,2.97
2022-10-16T00:07:18.127Z,2.97
2022-10-16T00:10:24.920Z,2.98
2022-10-16T00:13:30.182Z,2.96
2022-10-16T00:16:36.364Z,2.89
2022-10-16T00:19:42.310Z,2.82
2022-10-16T00:22:49.755Z,2.82
2022-10-16T00:25:57.071Z,2.82
2022-10-16T00:29:06.618Z,2.80
2022-10-16T00:32:11.531Z,2.77
2022-10-16T00:35:17.438Z,2.79
2022-10-16T00:38:23.793Z,2.79
2022-10-16T00:41:31.990Z,2.80
2022-10-16T00:45:05.462Z,2.80
2022-10-16T00:48:12.325Z,2.77
2022-10-16T00:51:17.651Z,2.75
2022-10-16T00:54:33.500Z,2.77
2022-10-16T00:57:38.646Z,2.78
2022-10-16T01:00:45.608Z,2.79
2022-10-16T01:03:52.836Z,2.82
2022-10-16T01:07:02.522Z,2.83
2022-10-16T01:10:19.316Z,2.79
2022-10-16T01:13:43.639Z,2.76
2022-10-16T01:17:01.384Z,2.74
2022-10-16T01:20:17.734Z,2.68
2022-10-16T01:23:43.128Z,2.66
2022-10-16T01:27:26.022Z,2.58
2022-10-16T01:30:40.571Z,2.53
2022-10-16T01:34:03.160Z,2.47
2022-10-16T01:37:14.005Z,2.45
2022-10-16T01:40:26.955Z,2.49
2022-10-16T01:43:55.110Z,2.53
2022-10-16T01:47:03.801Z,2.54
2022-10-16T01:50:08.740Z,2.51
2022-10-16T01:53:14.313Z,2.45
2022-10-16T01:56:23.704Z,2.38
2022-10-16T01:59:32.375Z,2.34
2022-10-16T02:02:38.446Z,2.37
2022-10-16T02:06:01.176Z,2.37
2022-10-16T02:09:07.842Z,2.33
2022-10-16T02:12:14.416Z,2.28
2022-10-16T02:15:20.550Z,2.25
2022-10-16T02:18:26.970Z,2.21
2022-10-16T02:21:42.121Z,2.18
2022-10-16T02:24:54.393Z,2.17
2022-10-16T02:28:11.626Z,2.21
2022-10-16T02:31:21.541Z,2.24
2022-10-16T02:34:26.463Z,2.30
2022-10-16T02:37:31.701Z,2.32
2022-10-16T02:40:37.970Z,2.32
2022-10-16T02:43:45.016Z,2.36
2022-10-16T02:46:51.448Z,2.38
2022-10-16T02:49:57.396Z,2.41
2022-10-16T02:53:03.593Z,2.41
2022-10-16T02:56:08.729Z,2.43
2022-10-16T02:59:14.850Z,2.41
2022-10-16T03:02:20.863Z,2.40
2022-10-16T03:05:27.262Z,2.40
2022-10-16T03:08:32.890Z,2.38
2022-10-16T03:11:38.939Z,2.36
2022-10-16T03:14:44.678Z,2.35
2022-10-16T03:17:50.582Z,2.32
2022-10-16T03:20:57.919Z,2.28
2022-10-16T03:24:05.014Z,2.19
2022-10-16T03:27:12.258Z,2.17
2022-10-16T03:30:18.256Z,2.17
2022-10-16T03:33:25.172Z,2.15
2022-10-16T03:36:30.487Z,2.09
2022-10-16T03:39:37.535Z,2.04
2022-10-16T03:42:43.600Z,1.99
2022-10-16T03:45:48.861Z,2.00
2022-10-16T03:48:55.684Z,1.98
2022-10-16T03:52:01.792Z,2.00
2022-10-16T03:55:07.921Z,1.99
2022-10-16T03:58:13.469Z,2.00
2022-10-16T04:01:20.469Z,2.04
2022-10-16T04:04:25.772Z,2.05
2022-10-16T04:07:31.627Z,2.06
2022-10-16T04:10:38.405Z,2.09
2022-10-16T04:13:45.092Z,2.06
2022-10-16T04:16:51.730Z,2.05
2022-10-16T04:19:57.399Z,2.04
2022-10-16T04:23:03.567Z,2.06
2022-10-16T04:26:10.359Z,2.10
2022-10-16T04:29:18.307Z,2.04
2022-10-16T04:32:25.376Z,2.08
2022-10-16T04:35:32.990Z,2.06
2022-10-16T04:38:38.924Z,2.08
2022-10-16T04:41:46.034Z,2.17
2022-10-16T04:44:52.942Z,2.23
2022-10-16T04:47:59.040Z,2.26
2022-10-16T04:51:05.800Z,2.29
2022-10-16T04:54:12.230Z,2.31
2022-10-16T04:57:18.148Z,2.33
2022-10-16T05:00:25.087Z,2.39
2022-10-16T05:06:37.618Z,2.48
2022-10-16T05:09:44.682Z,2.56
2022-10-16T05:12:50.788Z,2.66
2022-10-16T05:16:00.935Z,2.76
2022-10-16T05:19:28.014Z,2.83
2022-10-16T05:22:17.505Z,2.91
2022-10-16T05:25:25.119Z,2.99
2022-10-16T05:28:32.083Z,3.08
2022-10-16T05:31:40.077Z,3.18
2022-10-16T05:34:45.926Z,3.25
2022-10-16T05:37:54.540Z,3.33
2022-10-16T05:41:03.401Z,3.39
2022-10-16T05:44:08.605Z,3.48
2022-10-16T05:47:16.102Z,3.56
2022-10-16T05:50:23.431Z,3.66
2022-10-16T05:53:31.033Z,3.76
2022-10-16T05:56:37.586Z,3.83
2022-10-16T05:59:45.191Z,3.90
2022-10-16T06:02:51.486Z,4.01
2022-10-16T06:05:56.675Z,4.08
2022-10-16T06:09:03.423Z,4.13
2022-10-16T06:12:10.217Z,4.22
2022-10-16T06:15:16.580Z,4.36
2022-10-16T06:18:22.902Z,4.47
2022-10-16T06:21:35.790Z,4.60
2022-10-16T06:24:44.112Z,4.74
2022-10-16T06:27:49.801Z,4.84
2022-10-16T06:30:56.402Z,4.93
2022-10-16T06:34:08.303Z,5.05
2022-10-16T06:37:14.813Z,5.17
2022-10-16T06:40:24.005Z,5.29
2022-10-16T06:43:32.435Z,5.43
2022-10-16T06:46:40.405Z,5.53
2022-10-16T06:49:51.832Z,5.66
2022-10-16T06:52:56.661Z,5.78
2022-10-16T06:56:03.460Z,5.89
2022-10-16T06:59:11.290Z,6.01
2022-10-16T07:02:17.990Z,6.13
2022-10-16T07:05:25.425Z,6.25
2022-10-16T07:08:32.687Z,6.37
2022-10-16T07:11:40.147Z,6.51
2022-10-16T07:14:47.979Z,6.64
2022-10-16T07:17:54.994Z,6.74
2022-10-16T07:21:03.611Z,6.86
2022-10-16T07:24:15.044Z,6.97
2022-10-16T07:27:23.477Z,7.09
2022-10-16T07:30:30.486Z,7.19
2022-10-16T07:33:37.533Z,7.29
2022-10-16T07:36:47.111Z,7.39
2022-10-16T07:39:53.929Z,7.50
2022-10-16T07:43:02.281Z,7.60
2022-10-16T07:46:09.121Z,7.71
2022-10-16T07:49:15.135Z,7.81
2022-10-16T07:52:21.485Z,7.91
2022-10-16T07:55:30.084Z,8.01
2022-10-16T07:58:37.116Z,8.11
2022-10-16T08:01:43.594Z,8.22
2022-10-16T08:04:50.253Z,8.32
2022-10-16T08:07:57.613Z,8.43
2022-10-16T08:11:03.493Z,8.54
2022-10-16T08:14:10.788Z,8.63
2022-10-16T08:17:18.292Z,8.74
2022-10-16T08:20:26.719Z,8.82
2022-10-16T08:23:33.535Z,8.90
2022-10-16T08:26:41.277Z,8.99
2022-10-16T08:29:47.918Z,9.07
2022-10-16T08:32:55.158Z,9.15
2022-10-16T08:36:09.160Z,9.23
2022-10-16T08:39:18.075Z,9.30
2022-10-16T08:42:37.334Z,9.38
2022-10-16T08:46:12.936Z,9.49
2022-10-16T08:49:22.643Z,9.58
2022-10-16T08:52:29.623Z,9.65
2022-10-16T08:56:07.751Z,9.74
2022-10-16T08:59:14.675Z,9.80
2022-10-16T09:02:39.588Z,9.86
2022-10-16T09:06:30.232Z,9.92
2022-10-16T09:10:03.444Z,10.00
2022-10-16T09:13:23.976Z,10.10
2022-10-16T09:16:50.426Z,10.20
2022-10-16T09:20:04.278Z,10.28
2022-10-16T09:23:50.113Z,10.35
2022-10-16T09:26:56.406Z,10.41
2022-10-16T09:30:03.019Z,10.48
2022-10-16T09:33:10.938Z,10.54
2022-10-16T09:36:20.547Z,10.64
2022-10-16T09:39:27.275Z,10.74
2022-10-16T09:42:47.314Z,10.85
2022-10-16T09:45:53.576Z,10.96
2022-10-16T09:49:03.719Z,11.07
2022-10-16T09:52:21.107Z,11.16
2022-10-16T09:55:34.750Z,11.23
2022-10-16T09:58:41.333Z,11.31
2022-10-16T10:02:00.941Z,11.40
2022-10-16T10:05:09.159Z,11.49
2022-10-16T10:08:17.545Z,11.58
2022-10-16T10:11:23.384Z,11.66
2022-10-16T10:14:54.799Z,11.77
2022-10-16T10:18:04.620Z,11.86
2022-10-16T10:21:18.231Z,12.00
2022-10-16T10:24:30.615Z,12.11
2022-10-16T10:27:37.430Z,12.20
2022-10-16T10:31:07.420Z,12.27
2022-10-16T10:34:56.837Z,12.36
2022-10-16T10:38:39.033Z,12.48
2022-10-16T10:42:10.208Z,12.62
2022-10-16T10:45:42.942Z,12.72
2022-10-16T10:49:10.321Z,12.84
2022-10-16T10:52:40.508Z,12.95
2022-10-16T10:56:00.319Z,13.00
2022-10-16T10:59:37.690Z,13.09
2022-10-16T11:03:04.633Z,13.22
2022-10-16T11:06:38.265Z,13.31
2022-10-16T11:09:54.983Z,13.38
2022-10-16T11:13:08.334Z,13.45
2022-10-16T11:16:23.935Z,13.50
2022-10-16T11:19:41.607Z,13.62
2022-10-16T11:23:09.555Z,13.75
2022-10-16T11:26:22.295Z,13.88
2022-10-16T11:29:42.537Z,13.96
2022-10-16T11:33:11.061Z,14.03
2022-10-16T11:36:46.285Z,14.15
2022-10-16T11:39:51.527Z,14.28
2022-10-16T11:43:03.506Z,14.39
2022-10-16T11:46:14.673Z,14.47
2022-10-16T11:49:38.275Z,14.55
2022-10-16T11:52:55.188Z,14.67
2022-10-16T11:56:01.336Z,14.74
2022-10-16T11:59:21.442Z,14.83
2022-10-16T12:02:50.408Z,14.91
2022-10-16T12:06:25.596Z,14.92
2022-10-16T12:09:39.549Z,14.94
2022-10-16T12:12:54.664Z,14.88
2022-10-16T12:16:00.200Z,14.90
2022-10-16T12:19:18.203Z,14.92
2022-10-16T12:22:30.856Z,14.97
2022-10-16T12:25:47.705Z,14.99
2022-10-16T12:28:57.072Z,15.06
2022-10-16T12:32:03.029Z,15.08
2022-10-16T12:35:10.285Z,15.14
2022-10-16T12:38:35.219Z,15.15
2022-10-16T12:41:48.306Z,15.12
2022-10-16T12:44:52.361Z,15.14
2022-10-16T12:48:08.268Z,15.21
2022-10-16T12:51:35.170Z,15.26
2022-10-16T12:54:54.597Z,15.31
2022-10-16T12:58:19.931Z,15.27
2022-10-16T13:01:43.454Z,15.25
2022-10-16T13:05:09.431Z,15.23
2022-10-16T13:08:36.961Z,15.25
2022-10-16T13:12:06.308Z,15.31
2022-10-16T13:15:43.153Z,15.29
2022-10-16T13:19:01.523Z,15.29
2022-10-16T13:22:20.390Z,15.29
2022-10-16T13:25:49.016Z,15.31
2022-10-16T13:28:56.192Z,15.32
2022-10-16T13:32:03.497Z,15.33
2022-10-16T13:35:08.733Z,15.27
2022-10-16T13:38:35.909Z,15.20
2022-10-16T13:41:44.407Z,15.13
2022-10-16T13:44:58.918Z,15.09
2022-10-16T13:48:06.091Z,15.06
2022-10-16T13:51:31.719Z,15.00
2022-10-16T13:54:38.329Z,14.93
2022-10-16T13:57:44.153Z,14.84
2022-10-16T14:00:50.393Z,14.73
2022-10-16T14:03:58.242Z,14.64
2022-10-16T14:07:06.239Z,14.55
2022-10-16T14:10:15.748Z,14.47
2022-10-16T14:13:22.792Z,14.33
2022-10-16T14:16:43.527Z,14.23
2022-10-16T14:19:52.988Z,14.12
2022-10-16T14:22:53.365Z,13.98
2022-10-16T14:26:00.090Z,13.83
2022-10-16T14:29:18.617Z,13.70
2022-10-16T14:32:32.617Z,13.52
2022-10-16T14:35:51.445Z,13.31
2022-10-16T14:39:04.469Z,13.11
2022-10-16T14:42:13.163Z,12.87
2022-10-16T14:45:24.703Z,12.61
2022-10-16T14:48:33.091Z,12.38
2022-10-16T14:51:39.392Z,12.15
2022-10-16T14:54:44.743Z,11.96
2022-10-16T14:57:50.057Z,11.78
2022-10-16T15:00:56.931Z,11.63
2022-10-16T15:04:03.764Z,11.45
2022-10-16T15:07:10.693Z,11.26
2022-10-16T15:10:17.663Z,11.09
2022-10-16T15:13:27.823Z,10.91
2022-10-16T15:16:33.310Z,10.80
2022-10-16T15:19:42.367Z,10.64
2022-10-16T15:22:47.859Z,10.47
2022-10-16T15:26:03.023Z,10.32
2022-10-16T15:29:10.334Z,10.18
2022-10-16T15:32:17.168Z,10.03
2022-10-16T15:35:25.234Z,9.89
2022-10-16T15:38:31.815Z,9.76
2022-10-16T15:41:38.311Z,9.61
2022-10-16T15:44:44.592Z,9.49
2022-10-16T15:47:45.750Z,9.39
2022-10-16T15:50:52.028Z,9.31
2022-10-16T15:54:00.183Z,9.20
2022-10-16T15:57:06.631Z,9.07
2022-10-16T16:00:15.248Z,8.97
2022-10-16T16:03:24.921Z,8.86
2022-10-16T16:06:33.629Z,8.75
2022-10-16T16:09:40.482Z,8.66
2022-10-16T16:12:46.937Z,8.55
2022-10-16T16:15:56.892Z,8.43
2022-10-16T16:19:06.528Z,8.32
2022-10-16T16:22:13.076Z,8.19
2022-10-16T16:25:19.540Z,8.06
2022-10-16T16:28:25.821Z,7.94
2022-10-16T16:31:32.641Z,7.82
2022-10-16T16:34:41.804Z,7.73
2022-10-16T16:37:47.095Z,7.63
2022-10-16T16:40:56.199Z,7.51
2022-10-16T16:44:00.878Z,7.42
2022-10-16T16:47:08.720Z,7.39
2022-10-16T16:50:15.322Z,7.40
2022-10-16T16:53:19.519Z,7.40
2022-10-16T16:56:26.560Z,7.38
2022-10-16T16:59:34.903Z,7.35
2022-10-16T17:02:40.631Z,7.30
2022-10-16T17:05:46.591Z,7.26
2022-10-16T17:08:53.283Z,7.24
2022-10-16T17:11:58.426Z,7.25
2022-10-16T17:15:06.172Z,7.23
2022-10-16T17:18:14.169Z,7.18
2022-10-16T17:21:20.977Z,7.15
2022-10-16T17:24:27.445Z,7.17
2022-10-16T17:27:34.399Z,7.17
2022-10-16T17:30:41.963Z,7.18
2022-10-16T17:33:47.866Z,7.11
2022-10-16T17:36:54.980Z,7.10
2022-10-16T17:40:00.372Z,7.10
2022-10-16T17:43:07.643Z,7.03
2022-10-16T17:46:13.013Z,6.93
2022-10-16T17:49:19.740Z,6.83
2022-10-16T17:52:26.864Z,6.78
2022-10-16T17:55:34.026Z,6.72
2022-10-16T17:58:41.967Z,6.64
2022-10-16T18:01:53.227Z,6.58
2022-10-16T18:05:01.244Z,6.51
2022-10-16T18:08:08.344Z,6.47
2022-10-16T18:11:15.759Z,6.42
2022-10-16T18:14:22.613Z,6.38
2022-10-16T18:17:30.938Z,6.32
2022-10-16T18:20:39.264Z,6.28
2022-10-16T18:23:52.033Z,6.18
2022-10-16T18:26:57.142Z,6.08
2022-10-16T18:30:05.236Z,6.02
2022-10-16T18:33:12.452Z,5.97
2022-10-16T18:36:21.510Z,5.89
2022-10-16T18:39:30.172Z,5.85
2022-10-16T18:42:36.325Z,5.83
2022-10-16T18:45:43.163Z,5.77
2022-10-16T18:48:50.778Z,5.73
2022-10-16T18:51:59.814Z,5.68
2022-10-16T18:55:07.415Z,5.60
2022-10-16T18:58:14.619Z,5.52
2022-10-16T19:01:23.226Z,5.45
2022-10-16T19:04:32.749Z,5.47
2022-10-16T19:07:38.552Z,5.49
2022-10-16T19:10:45.205Z,5.49
2022-10-16T19:13:51.335Z,5.44
2022-10-16T19:16:59.206Z,5.36
2022-10-16T19:20:06.168Z,5.30
2022-10-16T19:23:13.930Z,5.27
2022-10-16T19:26:24.459Z,5.27
2022-10-16T19:29:30.820Z,5.24
2022-10-16T19:32:37.000Z,5.20
2022-10-16T19:35:44.490Z,5.14
2022-10-16T19:38:50.780Z,5.10
2022-10-16T19:41:56.924Z,5.07
2022-10-16T19:45:06.842Z,5.04
2022-10-16T19:48:15.148Z,4.98
2022-10-16T19:51:22.035Z,4.95
2022-10-16T19:54:29.344Z,4.97
2022-10-16T20:00:44.136Z,4.95
2022-10-16T20:03:49.501Z,4.90
2022-10-16T20:06:56.722Z,4.87
2022-10-16T20:10:02.077Z,4.81
2022-10-16T20:13:08.119Z,4.78
2022-10-16T20:16:14.187Z,4.75
2022-10-16T20:19:23.428Z,4.71
2022-10-16T20:22:29.531Z,4.70
2022-10-16T20:25:37.481Z,4.63
2022-10-16T20:28:43.553Z,4.60
2022-10-16T20:31:54.216Z,4.60
2022-10-16T20:35:02.073Z,4.61
2022-10-16T20:38:09.306Z,4.67
2022-10-16T20:41:19.374Z,4.71
2022-10-16T20:44:26.773Z,4.75
2022-10-16T20:47:31.825Z,4.74
2022-10-16T20:50:40.617Z,4.72
2022-10-16T20:53:46.320Z,4.68
2022-10-16T20:56:53.354Z,4.59
2022-10-16T21:00:03.029Z,4.50
2022-10-16T21:03:09.310Z,4.43
2022-10-16T21:06:19.589Z,4.35
2022-10-16T21:09:29.724Z,4.29
2022-10-16T21:12:35.186Z,4.27
2022-10-16T21:15:41.116Z,4.26
2022-10-16T21:18:50.395Z,4.26
2022-10-16T21:21:56.512Z,4.25
2022-10-16T21:25:02.741Z,4.21
2022-10-16T21:28:08.817Z,4.16
2022-10-16T21:31:17.977Z,4.12
2022-10-16T21:34:22.778Z,4.09
2022-10-16T21:37:28.271Z,4.07
2022-10-16T21:40:34.367Z,4.03
2022-10-16T21:43:40.051Z,3.97
2022-10-16T21:46:46.601Z,3.92
2022-10-16T21:49:52.861Z,3.90
2022-10-16T21:52:59.774Z,3.87
2022-10-16T21:56:07.184Z,3.81
2022-10-16T21:59:15.664Z,3.80
2022-10-16T22:02:22.218Z,3.78
2022-10-16T22:05:30.995Z,3.79
2022-10-16T22:08:36.922Z,3.77
2022-10-16T22:11:45.742Z,3.74
2022-10-16T22:14:51.595Z,3.72
2022-10-16T22:17:58.680Z,3.72
2022-10-16T22:21:04.728Z,3.75
2022-10-16T22:24:13.888Z,3.79
2022-10-16T22:27:22.876Z,3.83
2022-10-16T22:30:29.506Z,3.82
2022-10-16T22:33:35.794Z,3.82
2022-10-16T22:36:42.272Z,3.82
2022-10-16T22:39:50.420Z,3.79
2022-10-16T22:42:55.465Z,3.77
2022-10-16T22:46:03.466Z,3.77
2022-10-16T22:49:11.113Z,3.79
2022-10-16T22:52:16.355Z,3.78
2022-10-16T22:55:23.563Z,3.72
2022-10-16T22:58:29.701Z,3.71
2022-10-16T23:01:43.818Z,3.68
2022-10-16T23:04:49.234Z,3.64
2022-10-16T23:07:57.089Z,3.59
2022-10-16T23:11:07.352Z,3.51
2022-10-16T23:14:13.519Z,3.45
2022-10-16T23:17:21.230Z,3.36
2022-10-16T23:20:28.050Z,3.29
2022-10-16T23:23:34.811Z,3.26
2022-10-16T23:26:42.193Z,3.24
2022-10-16T23:29:48.444Z,3.23
2022-10-16T23:32:56.285Z,3.20
2022-10-16T23:36:03.804Z,3.20
2022-10-16T23:39:11.108Z,3.20
2022-10-16T23:42:17.849Z,3.24
2022-10-16T23:45:23.513Z,3.28
2022-10-16T23:48:30.071Z,3.30
2022-10-16T23:51:37.206Z,3.34
2022-10-16T23:54:43.318Z,3.36
2022-10-16T23:57:49.676Z,3.41
